createdAt,value
2022-10-11T00:04:02.823Z,11.90
2022-10-11T00:09:06.765Z,12.82
2022-10-11T00:14:10.139Z,13.10
2022-10-11T00:19:14.817Z,13.10
2022-10-11T00:24:22.543Z,12.68
2022-10-11T00:29:25.721Z,12.82
2022-10-11T00:34:30.586Z,11.32
2022-10-11T00:39:37.255Z,12.25
2022-10-11T00:44:41.541Z,11.52
2022-10-11T00:49:47.680Z,10.60
2022-10-11T00:54:51.228Z,10.93
2022-10-11T00:59:55.365Z,10.25
2022-10-11T01:05:25.224Z,10.48
2022-10-11T01:10:24.454Z,10.60
2022-10-11T01:15:29.934Z,10.13
2022-10-11T01:20:42.038Z,9.50
2022-10-11T01:25:50.489Z,10.35
2022-10-11T01:30:54.961Z,11.10
2022-10-11T01:36:03.750Z,10.90
2022-10-11T01:41:09.370Z,9.30
2022-10-11T01:46:15.080Z,11.32
2022-10-11T01:51:18.302Z,10.90
2022-10-11T01:56:31.631Z,10.57
2022-10-11T02:01:42.754Z,11.07
2022-10-11T02:06:50.291Z,11.52
2022-10-11T02:11:53.793Z,11.68
2022-10-11T02:17:04.156Z,10.63
2022-10-11T02:22:09.304Z,10.65
2022-10-11T02:27:12.425Z,9.43
2022-10-11T02:32:17.014Z,9.55
2022-10-11T02:37:24.804Z,7.05
2022-10-11T02:42:31.039Z,7.05
2022-10-11T02:47:40.575Z,6.50
2022-10-11T02:57:47.029Z,7.45
2022-10-11T03:02:56.784Z,7.53
2022-10-11T03:07:59.875Z,7.68
2022-10-11T03:13:03.038Z,5.97
2022-10-11T03:18:08.246Z,5.45
2022-10-11T03:23:11.525Z,3.90
2022-10-11T03:28:14.687Z,4.38
2022-10-11T03:33:19.760Z,4.10
2022-10-11T03:38:23.513Z,3.55
2022-10-11T03:43:27.021Z,3.53
2022-10-11T03:48:32.258Z,3.65
2022-10-11T03:53:35.320Z,3.60
2022-10-11T03:58:41.706Z,4.07
2022-10-11T04:03:47.950Z,4.00
2022-10-11T04:08:51.053Z,4.15
2022-10-11T04:13:54.778Z,4.45
2022-10-11T04:18:59.674Z,4.70
2022-10-11T04:24:02.860Z,4.70
2022-10-11T04:29:06.358Z,4.22
2022-10-11T04:34:10.973Z,4.50
2022-10-11T04:39:14.099Z,4.07
2022-10-11T04:44:17.372Z,4.18
2022-10-11T04:49:22.167Z,4.05
2022-10-11T04:54:25.519Z,3.72
2022-10-11T04:59:31.089Z,4.38
2022-10-11T05:04:35.952Z,4.13
2022-10-11T05:09:39.348Z,3.60
2022-10-11T05:14:42.421Z,3.45
2022-10-11T05:19:46.838Z,4.32
2022-10-11T05:24:50.004Z,4.25
2022-10-11T05:29:53.187Z,3.88
2022-10-11T05:34:58.084Z,4.38
2022-10-11T05:40:01.601Z,3.78
2022-10-11T05:45:05.040Z,3.78
2022-10-11T05:50:10.654Z,3.50
2022-10-11T05:55:13.811Z,3.70
2022-10-11T06:00:20.543Z,3.85
2022-10-11T06:05:25.985Z,3.85
2022-10-11T06:10:30.084Z,4.75
2022-10-11T06:15:34.010Z,4.63
2022-10-11T06:20:42.405Z,3.90
2022-10-11T06:25:59.334Z,4.25
2022-10-11T06:31:06.074Z,5.13
2022-10-11T06:36:17.647Z,3.58
2022-10-11T06:41:26.195Z,3.97
2022-10-11T06:46:33.085Z,3.60
2022-10-11T06:51:40.428Z,3.53
2022-10-11T06:56:49.177Z,3.90
2022-10-11T07:01:52.880Z,3.90
2022-10-11T07:06:58.753Z,3.10
2022-10-11T07:12:03.571Z,3.60
2022-10-11T07:17:08.341Z,4.13
2022-10-11T07:22:13.395Z,4.47
2022-10-11T07:27:17.912Z,5.65
2022-10-11T07:32:23.230Z,7.22
2022-10-11T07:37:29.551Z,7.57
2022-10-11T07:42:37.559Z,7.80
2022-10-11T07:47:46.437Z,8.18
2022-10-11T07:52:52.668Z,9.13
2022-10-11T07:57:56.926Z,9.27
2022-10-11T08:03:04.260Z,7.93
2022-10-11T08:08:09.291Z,7.40
2022-10-11T08:13:15.858Z,7.05
2022-10-11T08:18:19.477Z,7.65
2022-10-11T08:23:23.950Z,6.65
2022-10-11T08:28:28.019Z,6.57
2022-10-11T08:33:35.470Z,6.95
2022-10-11T08:38:41.067Z,5.90
2022-10-11T08:43:47.174Z,5.40
2022-10-11T08:48:50.953Z,5.15
2022-10-11T08:53:58.011Z,5.65
2022-10-11T08:59:04.125Z,4.60
2022-10-11T09:04:11.647Z,5.28
2022-10-11T09:09:28.495Z,5.10
2022-10-11T09:15:02.095Z,4.90
2022-10-11T09:20:39.216Z,4.47
2022-10-11T09:25:49.648Z,3.90
2022-10-11T09:30:54.066Z,3.95
2022-10-11T09:35:58.213Z,4.00
2022-10-11T09:41:07.208Z,3.40
2022-10-11T09:51:19.517Z,3.92
2022-10-11T09:56:24.812Z,3.97
2022-10-11T10:01:31.773Z,3.53
2022-10-11T10:06:36.908Z,3.60
2022-10-11T10:11:45.322Z,3.50
2022-10-11T10:16:51.747Z,3.90
2022-10-11T10:21:55.835Z,3.30
2022-10-11T10:27:25.338Z,3.53
2022-10-11T10:32:30.904Z,3.40
2022-10-11T10:37:35.836Z,3.15
2022-10-11T10:42:41.620Z,3.75
2022-10-11T10:47:53.882Z,3.17
2022-10-11T10:53:05.941Z,3.33
2022-10-11T10:58:24.812Z,3.33
2022-10-11T11:03:36.274Z,3.15
2022-10-11T11:08:59.702Z,4.10
2022-10-11T11:14:12.102Z,2.90
2022-10-11T11:19:30.142Z,3.10
2022-10-11T11:24:47.190Z,2.88
2022-10-11T11:29:56.412Z,3.05
2022-10-11T11:35:02.010Z,3.13
2022-10-11T11:40:09.194Z,3.40
2022-10-11T11:45:22.509Z,2.83
2022-10-11T11:50:28.675Z,2.90
2022-10-11T11:55:37.140Z,3.15
2022-10-11T12:00:56.004Z,2.88
2022-10-11T12:11:23.129Z,2.60
2022-10-11T12:16:28.982Z,3.22
2022-10-11T12:21:33.387Z,2.47
2022-10-11T12:26:45.544Z,2.70
2022-10-11T12:31:52.235Z,2.70
2022-10-11T12:37:05.953Z,2.55
2022-10-11T12:42:29.093Z,2.55
2022-10-11T12:47:39.431Z,2.28
2022-10-11T12:53:00.980Z,2.28
2022-10-11T12:58:29.224Z,2.10
2022-10-11T13:03:35.983Z,2.30
2022-10-11T13:08:42.119Z,2.05
2022-10-11T13:13:46.873Z,2.13
2022-10-11T13:18:57.052Z,2.10
2022-10-11T13:24:02.992Z,1.90
2022-10-11T13:29:14.805Z,1.60
2022-10-11T13:34:23.166Z,2.33
2022-10-11T13:39:31.351Z,2.05
2022-10-11T13:44:39.875Z,1.83
2022-10-11T13:55:06.152Z,2.47
2022-10-11T14:00:12.715Z,1.80
2022-10-11T14:05:30.542Z,1.92
2022-10-11T14:10:39.281Z,2.05
2022-10-11T14:15:49.908Z,1.98
2022-10-11T14:20:56.226Z,1.63
2022-10-11T14:26:02.549Z,2.00
2022-10-11T14:31:09.125Z,1.77
2022-10-11T14:36:15.179Z,2.00
2022-10-11T14:41:22.068Z,1.77
2022-10-11T14:46:27.636Z,1.92
2022-10-11T14:51:34.401Z,1.58
2022-10-11T14:56:38.692Z,1.80
2022-10-11T15:01:53.177Z,2.17
2022-10-11T15:07:02.242Z,1.95
2022-10-11T15:12:14.251Z,1.77
2022-10-11T15:17:22.619Z,1.70
2022-10-11T15:22:31.401Z,1.75
2022-10-11T15:27:42.608Z,1.80
2022-10-11T15:32:56.837Z,2.00
2022-10-11T15:38:06.673Z,1.65
2022-10-11T15:43:38.617Z,2.28
2022-10-11T15:48:42.948Z,2.13
2022-10-11T15:53:48.869Z,2.42
2022-10-11T15:58:53.982Z,1.70
2022-10-11T16:03:58.383Z,1.60
2022-10-11T16:09:08.160Z,1.60
2022-10-11T16:14:14.015Z,2.05
2022-10-11T16:19:19.401Z,2.00
2022-10-11T16:24:27.295Z,1.80
2022-10-11T16:29:30.751Z,1.65
2022-10-11T16:34:34.680Z,2.38
2022-10-11T16:39:39.823Z,2.47
2022-10-11T16:44:47.237Z,4.15
2022-10-11T16:49:51.862Z,3.23
2022-10-11T16:54:59.905Z,2.83
2022-10-11T17:00:07.216Z,4.23
2022-10-11T17:05:11.814Z,3.22
2022-10-11T17:10:16.587Z,2.60
2022-10-11T17:15:20.827Z,2.30
2022-10-11T17:20:23.996Z,2.13
2022-10-11T17:25:29.032Z,2.58
2022-10-11T17:30:33.091Z,2.58
2022-10-11T17:35:36.746Z,2.30
2022-10-11T17:40:41.960Z,2.20
2022-10-11T17:45:45.170Z,2.10
2022-10-11T17:50:50.729Z,3.25
2022-10-11T17:55:58.850Z,3.25
2022-10-11T18:01:03.609Z,3.50
2022-10-11T18:06:07.898Z,8.48
2022-10-11T18:11:13.460Z,7.53
2022-10-11T18:16:19.555Z,6.65
2022-10-11T18:21:23.195Z,18.42
2022-10-11T18:26:30.693Z,16.08
2022-10-11T18:31:35.324Z,7.10
2022-10-11T18:36:41.335Z,7.25
2022-10-11T18:41:46.269Z,6.50
2022-10-11T18:46:50.384Z,4.47
2022-10-11T18:51:54.507Z,14.48
2022-10-11T18:56:59.096Z,12.13
2022-10-11T19:02:04.178Z,5.78
2022-10-11T19:07:07.548Z,3.95
2022-10-11T19:12:12.557Z,3.92
2022-10-11T19:17:15.914Z,5.75
2022-10-11T19:22:19.793Z,5.18
2022-10-11T19:27:24.834Z,6.07
2022-10-11T19:32:30.326Z,5.65
2022-10-11T19:37:33.959Z,4.20
2022-10-11T19:42:38.625Z,4.18
2022-10-11T19:47:41.786Z,4.40
2022-10-11T19:52:45.404Z,4.88
2022-10-11T19:57:50.407Z,5.72
2022-10-11T20:02:53.625Z,5.18
2022-10-11T20:07:57.192Z,5.13
2022-10-11T20:13:01.574Z,5.53
2022-10-11T20:18:05.383Z,5.20
2022-10-11T20:23:08.526Z,5.88
2022-10-11T20:28:13.784Z,5.85
2022-10-11T20:33:17.183Z,5.53
2022-10-11T20:38:20.660Z,5.50
2022-10-11T20:43:27.075Z,5.32
2022-10-11T20:48:30.492Z,5.05
2022-10-11T20:53:35.386Z,5.07
2022-10-11T20:58:40.121Z,5.05
2022-10-11T21:03:45.433Z,4.70
2022-10-11T21:08:48.547Z,3.90
2022-10-11T21:13:57.327Z,4.97
2022-10-11T21:19:01.565Z,5.53
2022-10-11T21:24:05.564Z,6.10
2022-10-11T21:29:10.152Z,5.55
2022-10-11T21:34:15.953Z,5.88
2022-10-11T21:39:21.133Z,5.75
2022-10-11T21:44:31.679Z,6.07
2022-10-11T21:49:35.147Z,6.55
2022-10-11T21:54:39.327Z,6.25
2022-10-11T21:59:44.621Z,6.22
2022-10-11T22:04:47.790Z,6.38
2022-10-11T22:09:51.749Z,5.57
2022-10-11T22:14:58.316Z,5.97
2022-10-11T22:20:01.898Z,4.82
2022-10-11T22:25:05.843Z,4.75
2022-10-11T22:30:11.479Z,4.60
2022-10-11T22:35:15.578Z,4.07
2022-10-11T22:40:18.959Z,4.28
2022-10-11T22:45:29.763Z,4.57
2022-10-11T22:50:33.055Z,4.45
2022-10-11T22:55:36.806Z,3.85
2022-10-11T23:00:41.735Z,3.80
2022-10-11T23:05:54.699Z,4.30
2022-10-11T23:10:58.026Z,4.18
2022-10-11T23:16:30.745Z,4.40
2022-10-11T23:21:34.136Z,4.13
2022-10-11T23:26:45.676Z,4.38
2022-10-11T23:31:50.093Z,3.80
2022-10-11T23:36:53.679Z,3.78
2022-10-11T23:41:56.723Z,4.70
2022-10-11T23:47:01.821Z,5.05
2022-10-11T23:52:05.409Z,4.88
2022-10-11T23:57:11.033Z,4.28
